Wetterdaten: Woche 28.08.17 - 03.09.17 (KW35)
Datum Zeit Temp. I. Temp. A. Feuchte I. Feuchte A. Luftdruck Regen Wind Richtung Sonnenschein UV Solar Taupunkt Windchill Windben
28.08.2017 00:00 24,6 C 17,3 C 63 % 82 % 1018,1 hPa 0,0 l/m 0,0 km/h (0 Bft) N 0,00 h 0,0 UV-I 0 W/m 14,2 C 17,3 C 0,3 km/h (0 Bft)
28.08.2017 01:00 24,6 C 16,7 C 62 % 85 % 1018,0 hPa 0,2 l/m 0,0 km/h (0 Bft) N-NO 0,00 h 0,0 UV-I 0 W/m 14,1 C 16,7 C 0,4 km/h (0 Bft)
28.08.2017 02:00 24,5 C 15,9 C 61 % 88 % 1018,0 hPa 0,0 l/m 0,0 km/h (0 Bft) N 0,00 h 0,0 UV-I 0 W/m 13,9 C 15,9 C 0,2 km/h (0 Bft)
28.08.2017 03:00 24,6 C 15,4 C 61 % 90 % 1018,3 hPa 0,0 l/m 0,0 km/h (0 Bft) N 0,00 h 0,0 UV-I 0 W/m 13,8 C 15,4 C 0,1 km/h (0 Bft)
28.08.2017 04:00 24,6 C 15,1 C 61 % 91 % 1018,3 hPa 0,0 l/m 0,0 km/h (0 Bft) N 0,00 h 0,0 UV-I 0 W/m 13,6 C 15,1 C 0,0 km/h (0 Bft)
28.08.2017 05:00 24,4 C 14,5 C 61 % 91 % 1018,3 hPa 0,0 l/m 0,0 km/h (0 Bft) N 0,00 h 0,0 UV-I 0 W/m 13,0 C 14,5 C 0,0 km/h (0 Bft)
28.08.2017 06:00 24,4 C 14,1 C 61 % 91 % 1018,4 hPa 0,0 l/m 0,0 km/h (0 Bft) N-NW 0,00 h 0,0 UV-I 13 W/m 12,6 C 14,1 C 0,1 km/h (0 Bft)
28.08.2017 07:00 24,3 C 13,9 C 60 % 91 % 1018,6 hPa 0,0 l/m 0,7 km/h (0 Bft) N-NW 0,10 h 0,5 UV-I 76 W/m 12,5 C 13,9 C 2,0 km/h (1 Bft)
28.08.2017 08:00 24,3 C 16,2 C 60 % 84 % 1018,5 hPa 0,0 l/m 0,6 km/h (0 Bft) N-NO 1,00 h 0,8 UV-I 278 W/m 13,5 C 16,2 C 1,3 km/h (1 Bft)
28.08.2017 09:00 24,1 C 18,8 C 59 % 72 % 1018,6 hPa 0,0 l/m 0,7 km/h (0 Bft) N-NO 1,00 h 1,7 UV-I 454 W/m 13,5 C 18,8 C 2,0 km/h (1 Bft)
28.08.2017 10:00 23,9 C 20,5 C 57 % 66 % 1018,7 hPa 0,0 l/m 0,7 km/h (0 Bft) O-NO 1,00 h 2,8 UV-I 590 W/m 14,0 C 20,5 C 2,4 km/h (1 Bft)
28.08.2017 11:00 24,3 C 21,8 C 54 % 62 % 1018,6 hPa 0,0 l/m 0,9 km/h (0 Bft) O 1,00 h 3,9 UV-I 714 W/m 14,1 C 21,8 C 3,0 km/h (1 Bft)
28.08.2017 12:00 24,3 C 22,4 C 53 % 60 % 1018,5 hPa 0,0 l/m 1,3 km/h (1 Bft) N 1,00 h 3,9 UV-I 611 W/m 14,1 C 22,3 C 3,2 km/h (1 Bft)
28.08.2017 13:00 24,3 C 23,6 C 52 % 55 % 1018,2 hPa 0,0 l/m 1,0 km/h (0 Bft) W-NW 1,00 h 4,8 UV-I 792 W/m 14,0 C 23,6 C 2,9 km/h (1 Bft)
28.08.2017 14:00 24,4 C 24,3 C 51 % 52 % 1017,8 hPa 0,0 l/m 2,0 km/h (1 Bft) N 1,00 h 4,2 UV-I 683 W/m 13,6 C 24,2 C 4,4 km/h (1 Bft)
28.08.2017 15:00 24,3 C 24,8 C 48 % 46 % 1017,5 hPa 0,0 l/m 3,4 km/h (1 Bft) N 1,00 h 3,4 UV-I 621 W/m 12,3 C 24,7 C 7,3 km/h (2 Bft)
28.08.2017 16:00 24,2 C 24,5 C 47 % 45 % 1017,2 hPa 0,0 l/m 3,4 km/h (1 Bft) N 1,00 h 2,3 UV-I 494 W/m 11,8 C 24,4 C 7,6 km/h (2 Bft)
28.08.2017 17:00 24,3 C 23,8 C 47 % 48 % 1017,0 hPa 0,0 l/m 1,7 km/h (1 Bft) N-NO 1,00 h 1,2 UV-I 336 W/m 12,0 C 23,8 C 4,4 km/h (1 Bft)
28.08.2017 18:00 24,3 C 22,6 C 48 % 51 % 1016,9 hPa 0,0 l/m 1,7 km/h (1 Bft) N-NO 0,48 h 0,6 UV-I 115 W/m 12,0 C 22,6 C 4,3 km/h (1 Bft)
28.08.2017 19:00 24,2 C 20,8 C 50 % 57 % 1017,3 hPa 0,0 l/m 1,4 km/h (1 Bft) N-NO 0,00 h 0,0 UV-I 15 W/m 11,9 C 20,8 C 4,0 km/h (1 Bft)
28.08.2017 20:00 24,4 C 18,7 C 53 % 64 % 1017,8 hPa 0,0 l/m 0,9 km/h (0 Bft) N 0,00 h 0,0 UV-I 0 W/m 11,7 C 18,7 C 3,0 km/h (1 Bft)
28.08.2017 21:00 24,3 C 16,8 C 53 % 72 % 1018,2 hPa 0,0 l/m 0,0 km/h (0 Bft) N 0,00 h 0,0 UV-I 0 W/m 11,8 C 16,8 C 0,0 km/h (0 Bft)
28.08.2017 22:00 24,2 C 15,1 C 55 % 81 % 1018,5 hPa 0,0 l/m 0,0 km/h (0 Bft) N 0,00 h 0,0 UV-I 0 W/m 11,8 C 15,1 C 0,0 km/h (0 Bft)
28.08.2017 23:00 24,3 C 13,9 C 56 % 86 % 1018,7 hPa 0,0 l/m 0,0 km/h (0 Bft) N 0,00 h 0,0 UV-I 0 W/m 11,6 C 13,9 C 0,1 km/h (0 Bft)
29.08.2017 00:00 24,3 C 13,2 C 57 % 85 % 1018,5 hPa 0,0 l/m 0,0 km/h (0 Bft) NO 0,00 h 0,0 UV-I 0 W/m 10,8 C 13,2 C 0,7 km/h (0 Bft)
29.08.2017 01:00 24,3 C 12,7 C 58 % 87 % 1018,4 hPa 0,0 l/m 0,0 km/h (0 Bft) N 0,00 h 0,0 UV-I 0 W/m 10,5 C 12,7 C 0,1 km/h (0 Bft)
29.08.2017 02:00 24,1 C 12,1 C 58 % 88 % 1018,3 hPa 0,0 l/m 0,0 km/h (0 Bft) N 0,00 h 0,0 UV-I 0 W/m 10,2 C 12,1 C 0,0 km/h (0 Bft)
29.08.2017 03:00 24,1 C 11,6 C 58 % 89 % 1018,1 hPa 0,0 l/m 0,0 km/h (0 Bft) N 0,00 h 0,0 UV-I 0 W/m 9,9 C 11,6 C 0,0 km/h (0 Bft)
29.08.2017 04:00 24,1 C 10,9 C 59 % 90 % 1017,9 hPa 0,0 l/m 0,0 km/h (0 Bft) N 0,00 h 0,0 UV-I 0 W/m 9,4 C 10,9 C 0,0 km/h (0 Bft)
29.08.2017 05:00 24,1 C 10,4 C 59 % 91 % 1017,8 hPa 0,0 l/m 0,0 km/h (0 Bft) N 0,00 h 0,0 UV-I 0 W/m 9,0 C 10,4 C 0,0 km/h (0 Bft)
29.08.2017 06:00 24,0 C 9,9 C 59 % 92 % 1017,8 hPa 0,0 l/m 0,0 km/h (0 Bft) N 0,00 h 0,0 UV-I 11 W/m 8,7 C 9,9 C 0,0 km/h (0 Bft)
29.08.2017 07:00 23,9 C 10,4 C 59 % 93 % 1017,9 hPa 0,0 l/m 0,0 km/h (0 Bft) N 0,10 h 0,5 UV-I 63 W/m 9,4 C 10,4 C 0,0 km/h (0 Bft)
29.08.2017 08:00 23,6 C 14,7 C 58 % 87 % 1017,9 hPa 0,0 l/m 0,0 km/h (0 Bft) N 1,00 h 0,8 UV-I 276 W/m 12,6 C 14,7 C 0,0 km/h (0 Bft)
29.08.2017 09:00 23,1 C 19,0 C 57 % 71 % 1017,6 hPa 0,0 l/m 0,2 km/h (0 Bft) O 1,00 h 1,8 UV-I 456 W/m 13,6 C 19,0 C 0,5 km/h (0 Bft)
29.08.2017 10:00 24,1 C 21,2 C 56 % 66 % 1017,6 hPa 0,0 l/m 0,3 km/h (0 Bft) W-SW 1,00 h 3,0 UV-I 588 W/m 14,7 C 21,2 C 0,8 km/h (0 Bft)
29.08.2017 11:00 24,4 C 22,9 C 56 % 65 % 1017,3 hPa 0,0 l/m 1,2 km/h (1 Bft) SO 1,00 h 4,1 UV-I 683 W/m 15,9 C 22,9 C 3,7 km/h (1 Bft)
29.08.2017 12:00 24,7 C 23,9 C 57 % 62 % 1016,9 hPa 0,0 l/m 2,6 km/h (1 Bft) S 1,00 h 4,2 UV-I 566 W/m 16,2 C 23,9 C 6,6 km/h (2 Bft)
29.08.2017 13:00 24,8 C 24,9 C 56 % 57 % 1016,6 hPa 0,0 l/m 4,0 km/h (1 Bft) S 1,00 h 5,2 UV-I 783 W/m 15,9 C 24,9 C 9,3 km/h (2 Bft)
29.08.2017 14:00 24,8 C 25,2 C 55 % 54 % 1016,1 hPa 0,0 l/m 2,5 km/h (1 Bft) S 0,97 h 4,3 UV-I 600 W/m 15,2 C 25,2 C 6,2 km/h (2 Bft)
29.08.2017 15:00 24,9 C 25,9 C 53 % 50 % 1015,4 hPa 0,0 l/m 2,6 km/h (1 Bft) S 1,00 h 3,6 UV-I 615 W/m 14,6 C 25,9 C 6,6 km/h (2 Bft)
29.08.2017 16:00 24,9 C 25,9 C 52 % 48 % 1015,0 hPa 0,0 l/m 1,0 km/h (0 Bft) S 1,00 h 2,3 UV-I 482 W/m 13,9 C 25,9 C 3,5 km/h (1 Bft)
29.08.2017 17:00 24,9 C 25,6 C 52 % 48 % 1014,6 hPa 0,0 l/m 1,1 km/h (1 Bft) S-SO 1,00 h 1,2 UV-I 318 W/m 13,9 C 25,6 C 3,6 km/h (1 Bft)
29.08.2017 18:00 24,8 C 24,8 C 52 % 51 % 1014,3 hPa 0,0 l/m 0,5 km/h (0 Bft) S 0,43 h 0,6 UV-I 111 W/m 13,8 C 24,8 C 1,7 km/h (1 Bft)
29.08.2017 19:00 24,8 C 23,6 C 53 % 56 % 1014,3 hPa 0,0 l/m 0,0 km/h (0 Bft) N 0,00 h 0,0 UV-I 18 W/m 14,3 C 23,6 C 0,0 km/h (0 Bft)
29.08.2017 20:00 24,5 C 20,5 C 55 % 70 % 1014,5 hPa 0,0 l/m 0,0 km/h (0 Bft) N 0,00 h 0,0 UV-I 0 W/m 14,8 C 20,5 C 0,0 km/h (0 Bft)
29.08.2017 21:00 24,1 C 18,3 C 56 % 81 % 1014,8 hPa 0,0 l/m 0,0 km/h (0 Bft) N 0,00 h 0,0 UV-I 0 W/m 14,9 C 18,3 C 0,0 km/h (0 Bft)
29.08.2017 22:00 23,8 C 16,5 C 58 % 86 % 1014,8 hPa 0,0 l/m 0,0 km/h (0 Bft) N 0,00 h 0,0 UV-I 0 W/m 14,3 C 16,5 C 0,0 km/h (0 Bft)
29.08.2017 23:00 24,0 C 15,5 C 59 % 89 % 1014,8 hPa 0,0 l/m 0,0 km/h (0 Bft) N 0,00 h 0,0 UV-I 0 W/m 13,6 C 15,5 C 0,0 km/h (0 Bft)
30.08.2017 00:00 24,6 C 14,9 C 59 % 89 % 1015,0 hPa 0,0 l/m 0,0 km/h (0 Bft) N 0,00 h 0,0 UV-I 0 W/m 13,1 C 14,9 C 0,0 km/h (0 Bft)
30.08.2017 01:00 24,6 C 14,2 C 59 % 90 % 1015,0 hPa 0,0 l/m 0,0 km/h (0 Bft) N 0,00 h 0,0 UV-I 0 W/m 12,5 C 14,2 C 0,0 km/h (0 Bft)
30.08.2017 02:00 24,6 C 13,4 C 60 % 90 % 1014,6 hPa 0,0 l/m 0,0 km/h (0 Bft) N 0,00 h 0,0 UV-I 0 W/m 11,8 C 13,4 C 0,0 km/h (0 Bft)
30.08.2017 03:00 24,6 C 12,7 C 61 % 91 % 1014,3 hPa 0,0 l/m 0,0 km/h (0 Bft) N 0,00 h 0,0 UV-I 0 W/m 11,2 C 12,7 C 0,0 km/h (0 Bft)
30.08.2017 04:00 24,6 C 12,1 C 59 % 92 % 1014,2 hPa 0,0 l/m 0,0 km/h (0 Bft) N 0,00 h 0,0 UV-I 0 W/m 10,9 C 12,1 C 0,0 km/h (0 Bft)
30.08.2017 05:00 24,5 C 11,7 C 59 % 93 % 1014,0 hPa 0,0 l/m 0,0 km/h (0 Bft) N 0,00 h 0,0 UV-I 0 W/m 10,5 C 11,7 C 0,0 km/h (0 Bft)
30.08.2017 06:00 24,3 C 11,2 C 59 % 93 % 1013,9 hPa 0,0 l/m 0,0 km/h (0 Bft) N 0,00 h 0,0 UV-I 10 W/m 10,1 C 11,2 C 0,0 km/h (0 Bft)
30.08.2017 07:00 24,3 C 11,3 C 59 % 94 % 1013,9 hPa 0,0 l/m 0,0 km/h (0 Bft) N 0,07 h 0,5 UV-I 53 W/m 10,4 C 11,3 C 0,0 km/h (0 Bft)
30.08.2017 08:00 23,9 C 15,3 C 60 % 89 % 1013,8 hPa 0,0 l/m 0,0 km/h (0 Bft) N 1,00 h 0,8 UV-I 291 W/m 13,4 C 15,3 C 0,0 km/h (0 Bft)
30.08.2017 09:00 23,5 C 19,9 C 61 % 73 % 1013,7 hPa 0,0 l/m 0,0 km/h (0 Bft) N 1,00 h 1,8 UV-I 464 W/m 14,7 C 19,9 C 0,1 km/h (0 Bft)
30.08.2017 10:00 24,0 C 23,4 C 58 % 60 % 1013,4 hPa 0,0 l/m 0,1 km/h (0 Bft) SO 1,00 h 2,9 UV-I 598 W/m 15,2 C 23,4 C 0,8 km/h (0 Bft)
30.08.2017 11:00 24,4 C 25,3 C 56 % 48 % 1013,1 hPa 0,0 l/m 4,0 km/h (1 Bft) S 1,00 h 4,1 UV-I 681 W/m 13,5 C 25,2 C 8,0 km/h (2 Bft)
30.08.2017 12:00 24,6 C 26,4 C 51 % 42 % 1012,7 hPa 0,0 l/m 4,1 km/h (1 Bft) S 1,00 h 4,8 UV-I 715 W/m 12,5 C 26,3 C 8,8 km/h (2 Bft)
30.08.2017 13:00 24,7 C 27,3 C 51 % 39 % 1012,1 hPa 0,0 l/m 4,3 km/h (1 Bft) S 1,00 h 4,6 UV-I 668 W/m 12,0 C 27,3 C 9,1 km/h (2 Bft)
30.08.2017 14:00 24,8 C 28,4 C 50 % 37 % 1011,6 hPa 0,0 l/m 3,0 km/h (1 Bft) S-SO 1,00 h 4,2 UV-I 642 W/m 12,1 C 28,4 C 6,9 km/h (2 Bft)
30.08.2017 15:00 24,8 C 28,8 C 50 % 36 % 1011,0 hPa 0,0 l/m 4,1 km/h (1 Bft) S 1,00 h 2,9 UV-I 491 W/m 12,3 C 28,7 C 8,7 km/h (2 Bft)
30.08.2017 16:00 24,8 C 28,2 C 50 % 40 % 1010,7 hPa 0,0 l/m 3,9 km/h (1 Bft) S 1,00 h 1,7 UV-I 322 W/m 13,3 C 28,2 C 8,5 km/h (2 Bft)
30.08.2017 17:00 24,9 C 28,3 C 50 % 42 % 1010,0 hPa 0,0 l/m 4,4 km/h (1 Bft) S-SO 0,88 h 1,1 UV-I 291 W/m 14,1 C 28,3 C 8,9 km/h (2 Bft)
30.08.2017 18:00 25,1 C 26,7 C 52 % 47 % 1009,7 hPa 0,0 l/m 1,8 km/h (1 Bft) S-SO 0,00 h 0,5 UV-I 63 W/m 14,5 C 26,7 C 5,2 km/h (1 Bft)
30.08.2017 19:00 25,1 C 25,5 C 54 % 52 % 1009,5 hPa 0,0 l/m 0,2 km/h (0 Bft) SO 0,00 h 0,0 UV-I 23 W/m 14,9 C 25,5 C 1,0 km/h (0 Bft)
30.08.2017 20:00 25,1 C 22,9 C 55 % 61 % 1009,8 hPa 0,0 l/m 0,0 km/h (0 Bft) N 0,00 h 0,0 UV-I 0 W/m 14,9 C 22,9 C 0,0 km/h (0 Bft)
30.08.2017 21:00 24,7 C 20,3 C 56 % 73 % 1009,9 hPa 0,0 l/m 0,0 km/h (0 Bft) N 0,00 h 0,0 UV-I 0 W/m 15,3 C 20,3 C 0,0 km/h (0 Bft)
30.08.2017 22:00 24,3 C 18,6 C 58 % 81 % 1009,8 hPa 0,0 l/m 0,0 km/h (0 Bft) N 0,00 h 0,0 UV-I 0 W/m 15,2 C 18,6 C 0,0 km/h (0 Bft)
30.08.2017 23:00 24,3 C 17,4 C 60 % 84 % 1009,3 hPa 0,0 l/m 0,0 km/h (0 Bft) N 0,00 h 0,0 UV-I 0 W/m 14,7 C 17,4 C 0,0 km/h (0 Bft)
31.08.2017 00:00 24,8 C 17,0 C 60 % 86 % 1009,1 hPa 0,0 l/m 0,0 km/h (0 Bft) N 0,00 h 0,0 UV-I 0 W/m 14,5 C 17,0 C 0,0 km/h (0 Bft)
31.08.2017 01:00 24,9 C 17,2 C 60 % 85 % 1010,1 hPa 0,0 l/m 1,1 km/h (0 Bft) W 0,00 h 0,0 UV-I 0 W/m 14,7 C 17,1 C 2,5 km/h (1 Bft)
31.08.2017 02:00 24,8 C 18,5 C 60 % 81 % 1011,9 hPa 0,0 l/m 2,3 km/h (1 Bft) W-SW 0,00 h 0,0 UV-I 0 W/m 15,1 C 18,3 C 5,0 km/h (1 Bft)
31.08.2017 03:00 24,8 C 19,5 C 61 % 86 % 1011,6 hPa 0,6 l/m 0,0 km/h (0 Bft) N 0,00 h 0,0 UV-I 0 W/m 17,2 C 19,5 C 0,0 km/h (0 Bft)
31.08.2017 04:00 24,5 C 18,7 C 62 % 91 % 1011,0 hPa 0,2 l/m 0,0 km/h (0 Bft) N 0,00 h 0,0 UV-I 0 W/m 17,2 C 18,7 C 0,0 km/h (0 Bft)
31.08.2017 05:00 24,3 C 18,3 C 63 % 93 % 1010,7 hPa 0,0 l/m 0,0 km/h (0 Bft) N 0,00 h 0,0 UV-I 0 W/m 17,1 C 18,3 C 0,0 km/h (0 Bft)
31.08.2017 06:00 24,2 C 18,1 C 63 % 94 % 1010,5 hPa 0,0 l/m 0,1 km/h (0 Bft) O-NO 0,00 h 0,0 UV-I 9 W/m 17,1 C 18,1 C 0,5 km/h (0 Bft)
31.08.2017 07:00 24,3 C 17,9 C 64 % 95 % 1010,5 hPa 0,0 l/m 0,0 km/h (0 Bft) N 0,00 h 0,5 UV-I 44 W/m 17,1 C 17,9 C 0,0 km/h (0 Bft)
31.08.2017 08:00 24,5 C 19,1 C 64 % 94 % 1010,3 hPa 0,0 l/m 0,9 km/h (0 Bft) N 0,93 h 0,7 UV-I 245 W/m 18,0 C 19,1 C 1,0 km/h (0 Bft)
31.08.2017 09:00 24,6 C 21,3 C 64 % 85 % 1011,0 hPa 0,0 l/m 5,9 km/h (2 Bft) S 0,97 h 1,6 UV-I 388 W/m 18,6 C 20,9 C 10,4 km/h (2 Bft)
31.08.2017 10:00 24,6 C 21,3 C 65 % 83 % 1012,0 hPa 0,2 l/m 5,7 km/h (1 Bft) SW 0,90 h 1,8 UV-I 287 W/m 18,3 C 20,8 C 11,2 km/h (2 Bft)
31.08.2017 11:00 24,4 C 20,5 C 65 % 85 % 1012,4 hPa 0,0 l/m 1,8 km/h (1 Bft) W-SW 0,00 h 0,8 UV-I 47 W/m 17,8 C 20,4 C 4,7 km/h (1 Bft)
31.08.2017 12:00 24,3 C 19,8 C 65 % 89 % 1012,4 hPa 0,6 l/m 0,3 km/h (0 Bft) SW 0,00 h 1,2 UV-I 58 W/m 18,0 C 19,8 C 1,3 km/h (1 Bft)
31.08.2017 13:00 24,3 C 19,5 C 66 % 94 % 1012,7 hPa 1,6 l/m 0,0 km/h (0 Bft) N 0,12 h 1,0 UV-I 88 W/m 18,4 C 19,5 C 0,1 km/h (0 Bft)
31.08.2017 14:00 24,2 C 19,0 C 67 % 94 % 1013,6 hPa 2,8 l/m 2,3 km/h (1 Bft) W-SW 0,00 h 0,0 UV-I 26 W/m 18,1 C 18,9 C 5,3 km/h (1 Bft)
31.08.2017 15:00 24,4 C 18,2 C 66 % 95 % 1014,5 hPa 2,0 l/m 0,5 km/h (0 Bft) S-SW 0,00 h 0,6 UV-I 67 W/m 17,3 C 18,2 C 3,0 km/h (1 Bft)
31.08.2017 16:00 24,2 C 18,1 C 66 % 95 % 1014,2 hPa 0,0 l/m 1,3 km/h (1 Bft) W 0,00 h 0,6 UV-I 47 W/m 17,3 C 18,1 C 3,4 km/h (1 Bft)
31.08.2017 17:00 23,7 C 17,2 C 67 % 94 % 1014,8 hPa 0,0 l/m 1,2 km/h (1 Bft) W-SW 0,00 h 0,0 UV-I 26 W/m 16,3 C 17,2 C 4,5 km/h (1 Bft)
31.08.2017 18:00 23,2 C 16,7 C 68 % 95 % 1015,3 hPa 0,4 l/m 0,7 km/h (0 Bft) W 0,00 h 0,0 UV-I 26 W/m 15,9 C 16,7 C 2,5 km/h (1 Bft)
31.08.2017 19:00 24,2 C 16,2 C 68 % 95 % 1016,0 hPa 0,0 l/m 0,1 km/h (0 Bft) W-NW 0,00 h 0,0 UV-I 9 W/m 15,4 C 16,2 C 0,5 km/h (0 Bft)
31.08.2017 20:00 24,5 C 15,9 C 67 % 95 % 1016,9 hPa 0,0 l/m 0,0 km/h (0 Bft) N 0,00 h 0,0 UV-I 0 W/m 15,1 C 15,9 C 0,0 km/h (0 Bft)
31.08.2017 21:00 24,4 C 15,6 C 66 % 95 % 1017,4 hPa 0,0 l/m 0,4 km/h (0 Bft) NW 0,00 h 0,0 UV-I 0 W/m 14,8 C 15,6 C 1,6 km/h (1 Bft)
31.08.2017 22:00 24,4 C 14,8 C 66 % 94 % 1018,0 hPa 0,0 l/m 0,2 km/h (0 Bft) NW 0,00 h 0,0 UV-I 0 W/m 13,9 C 14,8 C 0,9 km/h (0 Bft)
31.08.2017 23:00 24,6 C 14,3 C 66 % 94 % 1018,1 hPa 0,0 l/m 0,4 km/h (0 Bft) W-NW 0,00 h 0,0 UV-I 0 W/m 13,3 C 14,3 C 1,4 km/h (1 Bft)
01.09.2017 00:00 24,6 C 14,2 C 66 % 94 % 1018,4 hPa 0,4 l/m 0,0 km/h (0 Bft) NW 0,00 h 0,0 UV-I 0 W/m 13,3 C 14,2 C 0,2 km/h (0 Bft)
01.09.2017 01:00 24,7 C 14,0 C 66 % 95 % 1018,3 hPa 0,2 l/m 0,0 km/h (0 Bft) N 0,00 h 0,0 UV-I 0 W/m 13,2 C 14,0 C 0,0 km/h (0 Bft)
01.09.2017 02:00 24,6 C 13,7 C 66 % 95 % 1018,0 hPa 0,2 l/m 0,0 km/h (0 Bft) N 0,00 h 0,0 UV-I 0 W/m 12,9 C 13,7 C 0,0 km/h (0 Bft)
01.09.2017 03:00 24,6 C 13,7 C 65 % 96 % 1018,2 hPa 0,4 l/m 0,0 km/h (0 Bft) N 0,00 h 0,0 UV-I 0 W/m 13,0 C 13,7 C 0,1 km/h (0 Bft)
01.09.2017 04:00 24,6 C 13,6 C 64 % 96 % 1017,8 hPa 0,6 l/m 0,6 km/h (0 Bft) N 0,00 h 0,0 UV-I 0 W/m 13,0 C 13,6 C 2,0 km/h (1 Bft)
01.09.2017 05:00 24,1 C 13,1 C 64 % 95 % 1017,7 hPa 0,4 l/m 0,6 km/h (0 Bft) N-NW 0,00 h 0,0 UV-I 0 W/m 12,3 C 13,1 C 2,5 km/h (1 Bft)
01.09.2017 06:00 23,4 C 12,5 C 65 % 95 % 1017,9 hPa 0,4 l/m 0,1 km/h (0 Bft) N-NW 0,00 h 0,0 UV-I 0 W/m 11,8 C 12,5 C 0,7 km/h (0 Bft)
01.09.2017 07:00 23,2 C 12,4 C 65 % 96 % 1018,0 hPa 0,4 l/m 1,7 km/h (1 Bft) N-NW 0,00 h 0,0 UV-I 16 W/m 11,7 C 12,3 C 4,0 km/h (1 Bft)
01.09.2017 08:00 22,9 C 12,4 C 63 % 96 % 1017,8 hPa 1,0 l/m 3,1 km/h (1 Bft) N-NW 0,00 h 0,0 UV-I 38 W/m 11,8 C 12,4 C 7,5 km/h (2 Bft)
01.09.2017 09:00 22,7 C 12,4 C 61 % 96 % 1018,1 hPa 1,2 l/m 0,6 km/h (0 Bft) N-NW 0,00 h 0,0 UV-I 32 W/m 11,8 C 12,4 C 1,8 km/h (1 Bft)
01.09.2017 10:00 22,7 C 12,3 C 61 % 96 % 1018,3 hPa 1,6 l/m 0,5 km/h (0 Bft) N-NW 0,00 h 0,0 UV-I 25 W/m 11,7 C 12,3 C 1,8 km/h (1 Bft)
01.09.2017 11:00 22,8 C 12,4 C 61 % 96 % 1018,5 hPa 1,4 l/m 0,3 km/h (0 Bft) NW 0,00 h 0,6 UV-I 49 W/m 11,8 C 12,4 C 1,4 km/h (1 Bft)
01.09.2017 12:00 22,7 C 12,5 C 61 % 96 % 1018,4 hPa 1,0 l/m 1,8 km/h (1 Bft) N 0,00 h 0,8 UV-I 79 W/m 11,9 C 12,4 C 5,1 km/h (1 Bft)
01.09.2017 13:00 22,7 C 12,6 C 61 % 96 % 1018,2 hPa 0,4 l/m 2,6 km/h (1 Bft) N 0,00 h 1,0 UV-I 113 W/m 12,0 C 12,5 C 6,2 km/h (2 Bft)
01.09.2017 14:00 22,7 C 12,8 C 61 % 96 % 1017,9 hPa 0,2 l/m 3,3 km/h (1 Bft) N 0,15 h 1,1 UV-I 127 W/m 12,2 C 12,7 C 7,5 km/h (2 Bft)
01.09.2017 15:00 22,7 C 13,1 C 61 % 95 % 1017,6 hPa 0,0 l/m 5,6 km/h (1 Bft) N 0,45 h 1,2 UV-I 159 W/m 12,3 C 12,5 C 11,4 km/h (2 Bft)
01.09.2017 16:00 22,8 C 12,9 C 61 % 93 % 1018,0 hPa 0,0 l/m 1,4 km/h (1 Bft) N 0,10 h 0,7 UV-I 101 W/m 11,7 C 12,9 C 3,9 km/h (1 Bft)
01.09.2017 17:00 22,9 C 13,0 C 61 % 92 % 1017,8 hPa 0,0 l/m 1,8 km/h (1 Bft) N 0,00 h 0,6 UV-I 97 W/m 11,7 C 13,0 C 4,1 km/h (1 Bft)
01.09.2017 18:00 22,9 C 12,8 C 62 % 90 % 1017,9 hPa 0,0 l/m 0,2 km/h (0 Bft) N-NW 0,00 h 0,0 UV-I 34 W/m 11,3 C 12,8 C 0,8 km/h (0 Bft)
01.09.2017 19:00 23,5 C 12,4 C 62 % 91 % 1018,1 hPa 0,0 l/m 0,0 km/h (0 Bft) N 0,00 h 0,0 UV-I 11 W/m 11,0 C 12,4 C 0,0 km/h (0 Bft)
01.09.2017 20:00 23,7 C 12,2 C 62 % 92 % 1018,1 hPa 0,0 l/m 0,0 km/h (0 Bft) N 0,00 h 0,0 UV-I 0 W/m 10,9 C 12,2 C 0,0 km/h (0 Bft)
01.09.2017 21:00 23,7 C 11,7 C 62 % 92 % 1018,1 hPa 0,0 l/m 0,0 km/h (0 Bft) N 0,00 h 0,0 UV-I 0 W/m 10,5 C 11,7 C 0,1 km/h (0 Bft)
01.09.2017 22:00 23,7 C 11,2 C 62 % 93 % 1018,4 hPa 0,0 l/m 0,0 km/h (0 Bft) N 0,00 h 0,0 UV-I 0 W/m 10,2 C 11,2 C 0,0 km/h (0 Bft)
01.09.2017 23:00 23,9 C 10,8 C 63 % 94 % 1018,3 hPa 0,0 l/m 0,0 km/h (0 Bft) N 0,00 h 0,0 UV-I 0 W/m 9,8 C 10,8 C 0,0 km/h (0 Bft)
02.09.2017 00:00 24,0 C 10,2 C 64 % 94 % 1018,3 hPa 0,0 l/m 0,0 km/h (0 Bft) N 0,00 h 0,0 UV-I 0 W/m 9,3 C 10,2 C 0,0 km/h (0 Bft)
02.09.2017 01:00 23,9 C 9,9 C 64 % 95 % 1018,1 hPa 0,0 l/m 0,0 km/h (0 Bft) N 0,00 h 0,0 UV-I 0 W/m 9,1 C 9,9 C 0,0 km/h (0 Bft)
02.09.2017 02:00 23,9 C 9,8 C 64 % 95 % 1017,9 hPa 0,0 l/m 0,0 km/h (0 Bft) N 0,00 h 0,0 UV-I 0 W/m 9,0 C 9,8 C 0,1 km/h (0 Bft)
02.09.2017 03:00 23,9 C 9,2 C 64 % 95 % 1017,7 hPa 0,0 l/m 0,0 km/h (0 Bft) N 0,00 h 0,0 UV-I 0 W/m 8,4 C 9,2 C 0,0 km/h (0 Bft)
02.09.2017 04:00 23,9 C 8,4 C 64 % 95 % 1017,8 hPa 0,0 l/m 0,0 km/h (0 Bft) N 0,00 h 0,0 UV-I 0 W/m 7,6 C 8,4 C 0,0 km/h (0 Bft)
02.09.2017 05:00 23,9 C 8,4 C 63 % 95 % 1017,6 hPa 0,0 l/m 0,0 km/h (0 Bft) N 0,00 h 0,0 UV-I 0 W/m 7,7 C 8,4 C 0,0 km/h (0 Bft)
02.09.2017 06:00 23,9 C 8,4 C 63 % 96 % 1017,5 hPa 0,0 l/m 0,0 km/h (0 Bft) N 0,00 h 0,0 UV-I 13 W/m 7,8 C 8,4 C 0,0 km/h (0 Bft)
02.09.2017 07:00 23,9 C 8,8 C 62 % 96 % 1017,8 hPa 0,0 l/m 0,0 km/h (0 Bft) N 0,00 h 0,0 UV-I 27 W/m 8,3 C 8,8 C 0,0 km/h (0 Bft)
02.09.2017 08:00 23,7 C 9,6 C 63 % 97 % 1017,8 hPa 0,0 l/m 0,1 km/h (0 Bft) N 0,00 h 0,5 UV-I 92 W/m 9,2 C 9,6 C 0,6 km/h (0 Bft)
02.09.2017 09:00 23,7 C 10,5 C 62 % 97 % 1018,1 hPa 0,0 l/m 1,0 km/h (0 Bft) N 0,10 h 0,8 UV-I 142 W/m 10,0 C 10,4 C 2,8 km/h (1 Bft)
02.09.2017 10:00 21,2 C 11,3 C 56 % 95 % 1018,3 hPa 0,0 l/m 2,7 km/h (1 Bft) N-NO 0,68 h 1,1 UV-I 161 W/m 10,4 C 11,2 C 5,9 km/h (2 Bft)
02.09.2017 11:00 19,6 C 12,3 C 59 % 90 % 1018,4 hPa 0,0 l/m 2,1 km/h (1 Bft) N-NW 0,87 h 1,8 UV-I 274 W/m 10,7 C 12,2 C 3,9 km/h (1 Bft)
02.09.2017 12:00 19,8 C 14,1 C 58 % 83 % 1018,0 hPa 0,0 l/m 3,6 km/h (1 Bft) N 1,00 h 2,6 UV-I 367 W/m 11,2 C 14,0 C 7,6 km/h (2 Bft)
02.09.2017 13:00 20,2 C 15,0 C 56 % 77 % 1017,6 hPa 0,0 l/m 4,7 km/h (1 Bft) N-NW 0,95 h 2,2 UV-I 285 W/m 10,9 C 14,7 C 9,4 km/h (2 Bft)
02.09.2017 14:00 19,8 C 14,1 C 58 % 82 % 1017,7 hPa 0,6 l/m 2,2 km/h (1 Bft) N 0,00 h 0,7 UV-I 88 W/m 11,0 C 14,0 C 5,6 km/h (1 Bft)
02.09.2017 15:00 19,5 C 12,6 C 61 % 90 % 1017,6 hPa 0,4 l/m 0,1 km/h (0 Bft) NO 0,00 h 0,6 UV-I 79 W/m 11,0 C 12,6 C 0,5 km/h (0 Bft)
02.09.2017 16:00 20,7 C 12,2 C 59 % 88 % 1017,3 hPa 0,0 l/m 0,0 km/h (0 Bft) N 0,00 h 0,6 UV-I 100 W/m 10,3 C 12,2 C 0,0 km/h (0 Bft)
02.09.2017 17:00 21,1 C 12,4 C 58 % 90 % 1017,0 hPa 0,0 l/m 0,0 km/h (0 Bft) N 0,00 h 0,6 UV-I 110 W/m 10,8 C 12,4 C 0,0 km/h (0 Bft)
02.09.2017 18:00 20,5 C 12,8 C 60 % 90 % 1017,0 hPa 0,0 l/m 0,0 km/h (0 Bft) N 0,00 h 0,5 UV-I 71 W/m 11,2 C 12,8 C 0,0 km/h (0 Bft)
02.09.2017 19:00 21,2 C 12,7 C 63 % 90 % 1016,7 hPa 0,0 l/m 0,0 km/h (0 Bft) N 0,00 h 0,0 UV-I 18 W/m 11,1 C 12,7 C 0,0 km/h (0 Bft)
02.09.2017 20:00 22,8 C 11,7 C 61 % 91 % 1017,0 hPa 0,0 l/m 0,1 km/h (0 Bft) NW 0,00 h 0,0 UV-I 0 W/m 10,3 C 11,7 C 0,8 km/h (0 Bft)
02.09.2017 21:00 23,0 C 10,9 C 61 % 92 % 1017,7 hPa 0,0 l/m 0,0 km/h (0 Bft) N 0,00 h 0,0 UV-I 0 W/m 9,5 C 10,9 C 0,0 km/h (0 Bft)
02.09.2017 22:00 23,1 C 10,3 C 61 % 92 % 1017,6 hPa 0,0 l/m 0,2 km/h (0 Bft) NW 0,00 h 0,0 UV-I 0 W/m 9,0 C 10,3 C 0,8 km/h (0 Bft)
02.09.2017 23:00 23,3 C 9,2 C 61 % 92 % 1017,6 hPa 0,0 l/m 0,0 km/h (0 Bft) N 0,00 h 0,0 UV-I 0 W/m 8,0 C 9,2 C 0,0 km/h (0 Bft)
03.09.2017 00:00 23,3 C 8,3 C 62 % 93 % 1017,4 hPa 0,0 l/m 0,0 km/h (0 Bft) N 0,00 h 0,0 UV-I 0 W/m 7,3 C 8,3 C 0,0 km/h (0 Bft)
03.09.2017 01:00 23,4 C 7,9 C 63 % 94 % 1017,4 hPa 0,0 l/m 0,0 km/h (0 Bft) N 0,00 h 0,0 UV-I 0 W/m 7,0 C 7,9 C 0,0 km/h (0 Bft)
03.09.2017 02:00 23,4 C 7,8 C 64 % 95 % 1017,1 hPa 0,0 l/m 0,0 km/h (0 Bft) N 0,00 h 0,0 UV-I 0 W/m 7,1 C 7,8 C 0,0 km/h (0 Bft)
03.09.2017 03:00 23,4 C 7,6 C 64 % 95 % 1016,9 hPa 0,0 l/m 0,0 km/h (0 Bft) N 0,00 h 0,0 UV-I 0 W/m 6,9 C 7,6 C 0,0 km/h (0 Bft)
03.09.2017 04:00 23,4 C 7,7 C 64 % 95 % 1016,7 hPa 0,0 l/m 0,0 km/h (0 Bft) N 0,00 h 0,0 UV-I 0 W/m 7,0 C 7,7 C 0,0 km/h (0 Bft)
03.09.2017 05:00 23,4 C 7,4 C 64 % 96 % 1016,8 hPa 0,0 l/m 0,0 km/h (0 Bft) N 0,00 h 0,0 UV-I 0 W/m 6,8 C 7,4 C 0,0 km/h (0 Bft)
03.09.2017 06:00 23,3 C 7,5 C 64 % 96 % 1016,8 hPa 0,0 l/m 0,0 km/h (0 Bft) N 0,00 h 0,0 UV-I 0 W/m 6,9 C 7,5 C 0,0 km/h (0 Bft)
03.09.2017 07:00 23,3 C 8,1 C 64 % 96 % 1016,8 hPa 0,0 l/m 0,0 km/h (0 Bft) N 0,00 h 0,0 UV-I 16 W/m 7,5 C 8,1 C 0,0 km/h (0 Bft)
03.09.2017 08:00 23,2 C 8,9 C 64 % 97 % 1017,1 hPa 0,0 l/m 0,0 km/h (0 Bft) N 0,00 h 0,6 UV-I 53 W/m 8,4 C 8,9 C 0,0 km/h (0 Bft)
03.09.2017 09:00 23,3 C 10,4 C 64 % 97 % 1017,2 hPa 0,0 l/m 1,6 km/h (1 Bft) N 0,55 h 1,1 UV-I 266 W/m 10,0 C 10,4 C 2,9 km/h (1 Bft)
03.09.2017 10:00 23,0 C 13,3 C 61 % 88 % 1017,1 hPa 0,0 l/m 4,1 km/h (1 Bft) N 1,00 h 2,0 UV-I 404 W/m 11,3 C 13,2 C 8,0 km/h (2 Bft)
03.09.2017 11:00 21,7 C 14,4 C 54 % 77 % 1016,9 hPa 0,0 l/m 2,6 km/h (1 Bft) N 0,85 h 2,2 UV-I 330 W/m 10,5 C 14,4 C 5,5 km/h (1 Bft)
03.09.2017 12:00 21,3 C 14,7 C 53 % 74 % 1016,6 hPa 0,0 l/m 2,6 km/h (1 Bft) NW 0,52 h 2,1 UV-I 322 W/m 10,1 C 14,7 C 5,6 km/h (1 Bft)
03.09.2017 13:00 21,3 C 15,7 C 54 % 67 % 1016,2 hPa 0,0 l/m 2,8 km/h (1 Bft) N 0,80 h 3,4 UV-I 559 W/m 9,6 C 15,6 C 6,1 km/h (2 Bft)
03.09.2017 14:00 22,4 C 17,3 C 55 % 59 % 1015,7 hPa 0,0 l/m 3,5 km/h (1 Bft) N-NW 1,00 h 3,2 UV-I 525 W/m 9,1 C 17,2 C 8,3 km/h (2 Bft)
03.09.2017 15:00 22,8 C 16,9 C 56 % 60 % 1015,3 hPa 0,0 l/m 1,5 km/h (1 Bft) NW 0,92 h 2,0 UV-I 314 W/m 9,1 C 16,8 C 4,8 km/h (1 Bft)
03.09.2017 16:00 22,7 C 16,8 C 58 % 60 % 1015,1 hPa 0,0 l/m 1,0 km/h (0 Bft) N 0,57 h 1,5 UV-I 278 W/m 8,9 C 16,7 C 2,9 km/h (1 Bft)
03.09.2017 17:00 22,5 C 16,4 C 59 % 60 % 1015,2 hPa 0,0 l/m 1,0 km/h (0 Bft) NW 0,28 h 0,8 UV-I 144 W/m 8,6 C 16,4 C 3,1 km/h (1 Bft)
03.09.2017 18:00 22,4 C 15,9 C 60 % 62 % 1015,2 hPa 0,0 l/m 0,0 km/h (0 Bft) W-NW 0,15 h 0,6 UV-I 60 W/m 8,6 C 15,9 C 0,3 km/h (0 Bft)
03.09.2017 19:00 22,5 C 14,0 C 63 % 70 % 1015,4 hPa 0,0 l/m 0,0 km/h (0 Bft) N 0,00 h 0,0 UV-I 14 W/m 8,5 C 14,0 C 0,0 km/h (0 Bft)
03.09.2017 20:00 23,1 C 12,1 C 61 % 79 % 1015,7 hPa 0,0 l/m 0,0 km/h (0 Bft) N 0,00 h 0,0 UV-I 0 W/m 8,6 C 12,1 C 0,0 km/h (0 Bft)
03.09.2017 21:00 23,1 C 10,3 C 61 % 85 % 1016,1 hPa 0,0 l/m 0,0 km/h (0 Bft) N 0,00 h 0,0 UV-I 0 W/m 7,9 C 10,3 C 0,0 km/h (0 Bft)
03.09.2017 22:00 23,2 C 8,7 C 62 % 89 % 1016,2 hPa 0,0 l/m 0,0 km/h (0 Bft) N 0,00 h 0,0 UV-I 0 W/m 7,0 C 8,7 C 0,0 km/h (0 Bft)
03.09.2017 23:00 23,3 C 7,8 C 63 % 91 % 1016,2 hPa 0,0 l/m 0,0 km/h (0 Bft) N 0,00 h 0,0 UV-I 0 W/m 6,4 C 7,8 C 0,0 km/h (0 Bft)
Min-Datum _ 02.09.17 31.08.17 28.08.17 30.08.17 31.08.17 - 28.08.17 - - - - 03.09.17 03.09.17 28.08.17
_ Min-Zeit 14:53 07:10 16:58 15:13 00:03 - 00:00 - - - - 23:50 05:20 00:00
Minimum _ 19,3 C 0,0 C 45 % 32 % 1008,8 hPa - 0,0 km/h (0 Bft) - - - - 6,0 C 7,4 C 0,0 km/h (0 Bft)
Max-Datum _ 30.08.17 30.08.17 31.08.17 03.09.17 28.08.17 31.08.17 31.08.17 - 28.08.17 29.08.17 03.09.17 31.08.17 30.08.17 31.08.17
_ Max-Zeit 19:51 15:20 18:47 09:38 09:58 14:11 02:49 - 08:30 13:05 13:46 09:31 15:20 10:32
Maximum _ 25,2 C 29,3 C 69 % 98 % 1018,8 hPa 2,8 l/m 14,5 km/h
W-SW (3 Bft)
- 0,03 h 5,4 UV-I 958 W/m 19,0 C 29,3 C 24,1 km/h
SW (4 Bft)
Durchschnitt _ 23,7 C 15,8 C 60 % 82 % 1016,0 hPa #19,4 l/m 0,9 km/h (0 Bft) N #44:53 h 1,9 UV-I 250 W/m 12,2 C 15,8 C 2,2 km/h (1 Bft)